createdAt,value
2023-05-06T00:00:40.253Z,248.48
2023-05-06T00:01:40.256Z,248.72
2023-05-06T00:02:40.328Z,248.79
2023-05-06T00:03:40.345Z,248.57
2023-05-06T00:04:40.315Z,248.78
2023-05-06T00:05:40.299Z,248.52
2023-05-06T00:06:40.347Z,248.72
2023-05-06T00:07:40.405Z,248.53
2023-05-06T00:08:40.343Z,249.08
2023-05-06T00:09:40.419Z,247.95
2023-05-06T00:10:40.352Z,247.19
2023-05-06T00:11:40.429Z,248.09
2023-05-06T00:12:40.463Z,248.02
2023-05-06T00:13:40.458Z,248.52
2023-05-06T00:14:40.487Z,247.94
2023-05-06T00:15:40.497Z,247.23
2023-05-06T00:16:40.583Z,246.72
2023-05-06T00:17:40.563Z,247.31
2023-05-06T00:18:40.508Z,247.86
2023-05-06T00:19:40.542Z,249.07
2023-05-06T00:20:40.593Z,248.61
2023-05-06T00:21:40.545Z,248.36
2023-05-06T00:22:40.606Z,248.96
2023-05-06T00:23:40.632Z,248.71
2023-05-06T00:24:40.653Z,249.01
2023-05-06T00:25:40.676Z,249.34
2023-05-06T00:26:40.656Z,248.99
2023-05-06T00:27:40.760Z,248.89
2023-05-06T00:28:40.748Z,247.90
2023-05-06T00:29:40.775Z,248.00
2023-05-06T00:30:40.808Z,249.24
2023-05-06T00:31:40.813Z,249.58
2023-05-06T00:32:40.840Z,249.86
2023-05-06T00:33:40.784Z,249.03
2023-05-06T00:34:40.791Z,249.37
2023-05-06T00:35:40.794Z,249.59
2023-05-06T00:36:40.826Z,248.14
2023-05-06T00:37:41.005Z,248.70
2023-05-06T00:38:40.834Z,248.65
2023-05-06T00:39:40.832Z,248.74
2023-05-06T00:40:40.877Z,248.71
2023-05-06T00:41:40.878Z,248.28
2023-05-06T00:42:40.890Z,248.73
2023-05-06T00:43:41.021Z,248.19
2023-05-06T00:44:41.117Z,249.48
2023-05-06T00:45:40.995Z,248.70
2023-05-06T00:46:41.188Z,248.73
2023-05-06T00:47:41.032Z,249.17
2023-05-06T00:48:41.072Z,248.85
2023-05-06T00:49:41.049Z,247.68
2023-05-06T00:50:41.162Z,249.01
2023-05-06T00:51:41.209Z,248.25
2023-05-06T00:52:41.096Z,248.97
2023-05-06T00:53:41.430Z,249.60
2023-05-06T00:54:41.136Z,249.33
2023-05-06T00:55:41.129Z,248.91
2023-05-06T00:56:41.163Z,248.31
2023-05-06T00:57:41.223Z,248.68
2023-05-06T00:58:41.181Z,247.51
2023-05-06T00:59:41.203Z,247.65
2023-05-06T01:00:41.197Z,247.93
2023-05-06T01:01:41.318Z,247.00
2023-05-06T01:02:47.611Z,246.79
2023-05-06T01:03:42.398Z,246.85
2023-05-06T01:04:41.255Z,247.06
2023-05-06T01:05:41.253Z,247.16
2023-05-06T01:06:41.272Z,247.28
2023-05-06T01:07:41.277Z,249.06
2023-05-06T01:08:41.235Z,247.32
2023-05-06T01:09:41.248Z,247.71
2023-05-06T01:10:41.190Z,247.82
2023-05-06T01:11:41.194Z,248.67
2023-05-06T01:12:41.212Z,247.65
2023-05-06T01:13:41.222Z,247.18
2023-05-06T01:14:41.180Z,246.98
2023-05-06T01:15:41.182Z,248.76
2023-05-06T01:16:41.217Z,248.39
2023-05-06T01:17:41.453Z,248.60
2023-05-06T01:18:41.193Z,248.19
2023-05-06T01:19:41.143Z,248.41
2023-05-06T01:20:41.222Z,247.77
2023-05-06T01:21:41.153Z,249.37
2023-05-06T01:22:41.941Z,249.47
2023-05-06T01:23:41.243Z,250.00
2023-05-06T01:24:41.239Z,247.81
2023-05-06T01:25:41.267Z,250.24
2023-05-06T01:26:41.265Z,247.50
2023-05-06T01:27:41.254Z,247.92
2023-05-06T01:28:41.323Z,247.59
2023-05-06T01:29:41.318Z,247.55
2023-05-06T01:30:41.313Z,246.96
2023-05-06T01:31:41.397Z,246.45
2023-05-06T01:32:41.481Z,246.42
2023-05-06T01:33:41.412Z,246.10
2023-05-06T01:34:41.495Z,244.98
2023-05-06T01:35:41.436Z,246.17
2023-05-06T01:36:42.448Z,246.43
2023-05-06T01:37:41.478Z,247.42
2023-05-06T01:38:41.490Z,246.71
2023-05-06T01:39:42.012Z,246.34
2023-05-06T01:40:41.591Z,245.83
2023-05-06T01:41:41.564Z,245.41
2023-05-06T01:42:41.666Z,243.54
2023-05-06T01:43:41.685Z,244.81
2023-05-06T01:44:41.623Z,245.37
2023-05-06T01:45:41.620Z,245.45
2023-05-06T01:46:41.777Z,245.13
2023-05-06T01:47:41.687Z,244.91
2023-05-06T01:48:41.701Z,246.21
2023-05-06T01:49:41.724Z,245.75
2023-05-06T01:50:41.716Z,245.71
2023-05-06T01:51:41.745Z,245.40
2023-05-06T01:52:41.772Z,244.73
2023-05-06T01:53:41.776Z,246.03
2023-05-06T01:54:41.779Z,246.29
2023-05-06T01:55:41.795Z,245.56
2023-05-06T01:56:41.807Z,246.48
2023-05-06T01:57:41.820Z,247.41
2023-05-06T01:58:41.867Z,246.87
2023-05-06T01:59:41.881Z,248.01
2023-05-06T02:00:41.884Z,247.87
2023-05-06T02:01:41.961Z,248.61
2023-05-06T02:02:42.005Z,247.13
2023-05-06T02:03:41.979Z,248.03
2023-05-06T02:04:41.965Z,247.31
2023-05-06T02:05:42.019Z,248.87
2023-05-06T02:06:41.987Z,248.38
2023-05-06T02:07:42.055Z,247.54
2023-05-06T02:08:42.067Z,248.55
2023-05-06T02:09:42.083Z,249.26
2023-05-06T02:10:42.102Z,248.13
2023-05-06T02:11:42.161Z,247.87
2023-05-06T02:12:42.217Z,247.26
2023-05-06T02:13:42.194Z,248.43
2023-05-06T02:14:42.206Z,246.62
2023-05-06T02:15:42.238Z,247.44
2023-05-06T02:16:42.225Z,249.06
2023-05-06T02:17:42.242Z,248.98
2023-05-06T02:18:42.275Z,248.20
2023-05-06T02:19:42.365Z,248.83
2023-05-06T02:20:42.324Z,248.34
2023-05-06T02:21:42.332Z,246.87
2023-05-06T02:22:42.422Z,248.07
2023-05-06T02:23:42.416Z,248.45
2023-05-06T02:24:42.391Z,247.33
2023-05-06T02:25:42.405Z,247.82
2023-05-06T02:26:42.433Z,248.28
2023-05-06T02:27:42.428Z,247.89
2023-05-06T02:28:42.480Z,248.41
2023-05-06T02:29:42.513Z,247.87
2023-05-06T02:30:42.529Z,247.80
2023-05-06T02:31:42.586Z,247.80
2023-05-06T02:32:42.623Z,248.15
2023-05-06T02:33:42.650Z,248.17
2023-05-06T02:34:42.834Z,248.37
2023-05-06T02:35:42.794Z,248.84
2023-05-06T02:36:42.801Z,248.74
2023-05-06T02:37:42.749Z,247.94
2023-05-06T02:38:42.817Z,249.44
2023-05-06T02:39:42.814Z,248.07
2023-05-06T02:40:42.825Z,248.37
2023-05-06T02:41:42.832Z,248.49
2023-05-06T02:42:42.869Z,248.22
2023-05-06T02:43:42.911Z,248.82
2023-05-06T02:44:42.879Z,248.64
2023-05-06T02:45:42.967Z,247.81
2023-05-06T02:46:42.953Z,248.15
2023-05-06T02:47:43.006Z,248.75
2023-05-06T02:48:43.046Z,248.70
2023-05-06T02:49:43.047Z,247.33
2023-05-06T02:50:43.016Z,248.29
2023-05-06T02:51:43.055Z,247.51
2023-05-06T02:52:43.055Z,248.73
2023-05-06T02:53:43.091Z,246.15
2023-05-06T02:54:43.101Z,246.29
2023-05-06T02:55:43.111Z,246.70
2023-05-06T02:56:43.137Z,247.00
2023-05-06T02:57:43.223Z,245.62
2023-05-06T02:58:43.195Z,247.07
2023-05-06T02:59:43.227Z,245.24
2023-05-06T03:00:43.216Z,245.26
2023-05-06T03:01:43.315Z,245.56
2023-05-06T03:02:43.370Z,245.30
2023-05-06T03:03:43.287Z,245.62
2023-05-06T03:04:43.383Z,246.99
2023-05-06T03:05:44.367Z,246.41
2023-05-06T03:06:43.396Z,246.74
2023-05-06T03:07:43.515Z,246.38
2023-05-06T03:08:43.473Z,245.60
2023-05-06T03:09:43.491Z,243.19
2023-05-06T03:10:43.628Z,244.09
2023-05-06T03:11:43.503Z,243.27
2023-05-06T03:12:43.572Z,243.40
2023-05-06T03:13:43.619Z,244.77
2023-05-06T03:14:43.617Z,244.99
2023-05-06T03:15:43.669Z,244.77
2023-05-06T03:16:43.679Z,244.94
2023-05-06T03:17:44.138Z,245.71
2023-05-06T03:18:43.715Z,244.97
2023-05-06T03:19:43.748Z,245.45
2023-05-06T03:20:43.801Z,243.84
2023-05-06T03:21:43.898Z,244.14
2023-05-06T03:22:43.857Z,244.06
2023-05-06T03:23:43.853Z,244.29
2023-05-06T03:24:43.913Z,243.79
2023-05-06T03:25:43.963Z,242.95
2023-05-06T03:26:44.026Z,243.99
2023-05-06T03:27:44.009Z,244.45
2023-05-06T03:28:43.989Z,245.54
2023-05-06T03:29:44.017Z,244.99
2023-05-06T03:30:44.084Z,244.66
2023-05-06T03:31:44.112Z,244.04
2023-05-06T03:32:44.127Z,244.89
2023-05-06T03:33:44.144Z,245.63
2023-05-06T03:34:44.169Z,244.84
2023-05-06T03:35:44.219Z,246.12
2023-05-06T03:36:44.378Z,244.81
2023-05-06T03:37:44.292Z,246.16
2023-05-06T03:38:44.296Z,245.81
2023-05-06T03:39:44.329Z,245.35
2023-05-06T03:40:44.336Z,246.25
2023-05-06T03:41:44.358Z,246.20
2023-05-06T03:42:44.394Z,247.25
2023-05-06T03:43:44.457Z,246.87
2023-05-06T03:44:44.478Z,246.36
2023-05-06T03:45:44.478Z,246.01
2023-05-06T03:46:44.587Z,246.70
2023-05-06T03:47:44.592Z,245.26
2023-05-06T03:48:44.593Z,245.00
2023-05-06T03:49:44.601Z,246.45
2023-05-06T03:50:44.982Z,246.36
2023-05-06T03:51:44.684Z,246.25
2023-05-06T03:52:44.731Z,247.02
2023-05-06T03:53:44.751Z,248.38
2023-05-06T03:54:45.009Z,247.66
2023-05-06T03:55:44.806Z,247.47
2023-05-06T03:56:44.856Z,249.07
2023-05-06T03:57:44.938Z,248.48
2023-05-06T03:58:44.873Z,249.11
2023-05-06T03:59:44.938Z,249.66
2023-05-06T04:00:44.945Z,249.46
2023-05-06T04:01:45.018Z,249.19
2023-05-06T04:02:46.001Z,249.58
2023-05-06T04:03:45.146Z,248.10
2023-05-06T04:04:45.077Z,249.03
2023-05-06T04:05:45.086Z,247.50
2023-05-06T04:06:45.133Z,248.99
2023-05-06T04:07:45.146Z,248.27
2023-05-06T04:08:45.214Z,248.53
2023-05-06T04:09:45.225Z,248.31
2023-05-06T04:10:45.237Z,246.33
2023-05-06T04:11:45.277Z,246.71
2023-05-06T04:12:45.335Z,249.00
2023-05-06T04:13:45.344Z,248.20
2023-05-06T04:14:45.423Z,249.78
2023-05-06T04:15:45.355Z,248.94
2023-05-06T04:16:45.452Z,247.27
2023-05-06T04:17:45.527Z,247.05
2023-05-06T04:18:45.477Z,247.83
2023-05-06T04:19:45.439Z,247.64
2023-05-06T04:20:45.501Z,248.70
2023-05-06T04:21:46.005Z,248.71
2023-05-06T04:22:45.556Z,247.86
2023-05-06T04:23:45.620Z,246.91
2023-05-06T04:24:47.484Z,247.59
2023-05-06T04:25:45.626Z,247.15
2023-05-06T04:26:45.644Z,247.53
2023-05-06T04:27:45.641Z,246.15
2023-05-06T04:28:45.704Z,249.72
2023-05-06T04:29:45.703Z,247.82
2023-05-06T04:30:45.933Z,247.53
2023-05-06T04:31:45.803Z,246.95
2023-05-06T04:32:45.841Z,245.81
2023-05-06T04:33:45.848Z,246.19
2023-05-06T04:34:45.842Z,246.29
2023-05-06T04:35:45.905Z,245.74
2023-05-06T04:36:45.964Z,245.03
2023-05-06T04:37:45.911Z,244.35
2023-05-06T04:38:45.945Z,245.45
2023-05-06T04:39:45.956Z,243.63
2023-05-06T04:40:45.998Z,243.30
2023-05-06T04:41:46.045Z,241.75
2023-05-06T04:42:46.057Z,241.99
2023-05-06T04:43:46.115Z,242.57
2023-05-06T04:44:46.125Z,242.60
2023-05-06T04:45:46.567Z,240.64
2023-05-06T04:46:46.262Z,240.38
2023-05-06T04:47:46.278Z,238.66
2023-05-06T04:48:46.258Z,238.92
2023-05-06T04:49:46.284Z,239.20
2023-05-06T04:50:46.307Z,237.33
2023-05-06T04:51:46.334Z,233.92
2023-05-06T04:52:46.340Z,234.38
2023-05-06T04:53:46.365Z,233.47
2023-05-06T04:54:46.393Z,234.83
2023-05-06T04:55:46.407Z,238.73
2023-05-06T04:56:46.427Z,241.97
2023-05-06T04:57:46.521Z,248.65
2023-05-06T04:58:46.502Z,248.86
2023-05-06T04:59:46.567Z,248.55
2023-05-06T05:00:46.561Z,250.00
2023-05-06T05:01:46.685Z,249.11
2023-05-06T05:02:46.678Z,250.05
2023-05-06T05:03:46.833Z,250.39
2023-05-06T05:04:46.704Z,249.65
2023-05-06T05:05:46.712Z,249.16
2023-05-06T05:06:46.715Z,249.94
2023-05-06T05:07:47.533Z,250.00
2023-05-06T05:08:46.744Z,249.69
2023-05-06T05:09:46.776Z,248.97
2023-05-06T05:10:46.750Z,248.94
2023-05-06T05:11:46.852Z,248.42
2023-05-06T05:12:46.868Z,249.87
2023-05-06T05:13:46.884Z,249.95
2023-05-06T05:14:46.862Z,249.89
2023-05-06T05:15:46.898Z,249.46
2023-05-06T05:16:46.938Z,249.59
2023-05-06T05:17:46.971Z,248.05
2023-05-06T05:18:46.998Z,250.00
2023-05-06T05:19:47.027Z,250.00
2023-05-06T05:20:47.050Z,247.83
2023-05-06T05:21:47.067Z,249.24
2023-05-06T05:22:47.186Z,247.50
2023-05-06T05:23:47.152Z,248.07
2023-05-06T05:24:47.109Z,248.80
2023-05-06T05:25:47.183Z,248.08
2023-05-06T05:26:47.205Z,248.57
2023-05-06T05:27:47.287Z,249.14
2023-05-06T05:28:47.270Z,249.47
2023-05-06T05:29:47.317Z,247.98
2023-05-06T05:30:47.483Z,247.13
2023-05-06T05:31:47.458Z,248.52
2023-05-06T05:32:47.557Z,247.53
2023-05-06T05:33:47.482Z,247.72
2023-05-06T05:34:47.455Z,246.53
2023-05-06T05:35:47.439Z,246.52
2023-05-06T05:36:47.481Z,246.38
2023-05-06T05:37:48.045Z,247.95
2023-05-06T05:38:47.591Z,245.99
2023-05-06T05:39:47.603Z,244.69
2023-05-06T05:40:47.612Z,241.88
2023-05-06T05:41:47.663Z,243.42
2023-05-06T05:42:47.687Z,241.54
2023-05-06T05:43:47.733Z,241.50
2023-05-06T05:44:47.767Z,241.36
2023-05-06T05:45:47.833Z,239.26
2023-05-06T05:46:47.952Z,238.95
2023-05-06T05:47:47.862Z,236.43
2023-05-06T05:48:47.916Z,234.38
2023-05-06T05:49:47.924Z,234.65
2023-05-06T05:50:47.974Z,233.55
2023-05-06T05:51:47.977Z,231.52
2023-05-06T05:52:48.046Z,229.59
2023-05-06T05:53:48.008Z,228.78
2023-05-06T05:54:48.053Z,227.58
2023-05-06T05:55:48.095Z,227.18
2023-05-06T05:56:48.136Z,226.75
2023-05-06T05:57:48.197Z,224.71
2023-05-06T05:58:48.214Z,224.90
2023-05-06T05:59:48.261Z,224.69
2023-05-06T06:00:48.309Z,223.86
2023-05-06T06:01:48.278Z,223.02
2023-05-06T06:02:48.384Z,222.60
2023-05-06T06:03:48.485Z,223.22
2023-05-06T06:04:48.382Z,221.89
2023-05-06T06:05:48.442Z,221.16
2023-05-06T06:06:48.408Z,221.82
2023-05-06T06:07:48.498Z,220.18
2023-05-06T06:08:48.506Z,219.92
2023-05-06T06:09:48.526Z,220.67
2023-05-06T06:10:48.536Z,219.88
2023-05-06T06:11:48.601Z,220.47
2023-05-06T06:12:48.641Z,221.64
2023-05-06T06:13:48.616Z,220.41
2023-05-06T06:14:48.700Z,220.12
2023-05-06T06:15:48.764Z,220.55
2023-05-06T06:16:48.744Z,220.08
2023-05-06T06:17:48.820Z,220.19
2023-05-06T06:18:48.787Z,219.69
2023-05-06T06:19:48.804Z,220.42
2023-05-06T06:20:49.645Z,221.48
2023-05-06T06:21:48.888Z,221.14
2023-05-06T06:22:48.953Z,222.21
2023-05-06T06:23:48.936Z,221.06
2023-05-06T06:24:48.995Z,220.83
2023-05-06T06:25:48.978Z,221.55
2023-05-06T06:26:49.097Z,222.91
2023-05-06T06:27:49.104Z,224.43
2023-05-06T06:28:49.135Z,223.65
2023-05-06T06:29:49.107Z,222.40
2023-05-06T06:30:49.146Z,224.56
2023-05-06T06:31:49.220Z,226.07
2023-05-06T06:32:49.331Z,223.62
2023-05-06T06:33:49.350Z,225.07
2023-05-06T06:34:49.252Z,223.82
2023-05-06T06:35:49.327Z,227.22
2023-05-06T06:36:49.369Z,227.85
2023-05-06T06:37:49.410Z,227.70
2023-05-06T06:38:49.505Z,230.69
2023-05-06T06:39:49.443Z,228.65
2023-05-06T06:40:49.500Z,228.97
2023-05-06T06:41:49.524Z,228.98
2023-05-06T06:42:49.606Z,229.41
2023-05-06T06:43:49.574Z,229.78
2023-05-06T06:44:49.686Z,229.53
2023-05-06T06:45:49.694Z,228.40
2023-05-06T06:46:49.669Z,228.73
2023-05-06T06:47:49.730Z,227.27
2023-05-06T06:48:49.783Z,229.24
2023-05-06T06:49:49.788Z,228.86
2023-05-06T06:50:49.816Z,228.20
2023-05-06T06:51:49.899Z,230.40
2023-05-06T06:52:49.921Z,229.76
2023-05-06T06:53:49.933Z,228.77
2023-05-06T06:54:49.920Z,228.69
2023-05-06T06:55:50.081Z,229.47
2023-05-06T06:56:50.033Z,229.08
2023-05-06T06:57:50.085Z,228.59
2023-05-06T06:58:52.383Z,229.38
2023-05-06T06:59:50.084Z,228.02
2023-05-06T07:00:50.147Z,226.00
2023-05-06T07:01:50.116Z,226.51
2023-05-06T07:02:50.077Z,227.91
2023-05-06T07:03:50.105Z,227.64
2023-05-06T07:04:50.077Z,227.20
2023-05-06T07:05:50.035Z,225.73
2023-05-06T07:06:50.019Z,226.73
2023-05-06T07:07:50.026Z,225.92
2023-05-06T07:08:50.053Z,225.98
2023-05-06T07:09:50.056Z,224.37
2023-05-06T07:10:50.240Z,223.69
2023-05-06T07:11:50.072Z,224.20
2023-05-06T07:12:50.065Z,223.28
2023-05-06T07:13:50.033Z,223.07
2023-05-06T07:14:50.022Z,222.51
2023-05-06T07:15:49.970Z,222.84
2023-05-06T07:16:51.441Z,221.37
2023-05-06T07:17:49.995Z,220.09
2023-05-06T07:18:49.958Z,221.27
2023-05-06T07:19:50.014Z,220.36
2023-05-06T07:20:50.016Z,220.29
2023-05-06T07:21:49.941Z,219.64
2023-05-06T07:22:49.931Z,218.68
2023-05-06T07:23:49.974Z,217.41
2023-05-06T07:24:49.933Z,215.89
2023-05-06T07:25:49.934Z,214.12
2023-05-06T07:26:49.953Z,212.48
2023-05-06T07:27:49.980Z,210.72
2023-05-06T07:28:49.915Z,209.68
2023-05-06T07:29:49.892Z,210.34
2023-05-06T07:30:49.978Z,209.93
2023-05-06T07:31:49.862Z,210.27
2023-05-06T07:32:49.883Z,207.72
2023-05-06T07:33:49.853Z,209.47
2023-05-06T07:34:49.890Z,206.90
2023-05-06T07:35:50.615Z,205.79
2023-05-06T07:36:49.865Z,205.21
2023-05-06T07:37:49.852Z,205.40
2023-05-06T07:38:49.821Z,201.29
2023-05-06T07:39:49.830Z,199.68
2023-05-06T07:40:49.857Z,200.01
2023-05-06T07:41:49.915Z,197.16
2023-05-06T07:42:49.982Z,195.50
2023-05-06T07:43:49.963Z,194.20
2023-05-06T07:44:49.980Z,195.68
2023-05-06T07:45:50.063Z,194.79
2023-05-06T07:46:50.228Z,192.75
2023-05-06T07:47:50.220Z,191.12
2023-05-06T07:48:50.150Z,189.98
2023-05-06T07:49:50.181Z,192.61
2023-05-06T07:50:50.165Z,194.17
2023-05-06T07:51:50.215Z,192.33
2023-05-06T07:52:50.222Z,192.27
2023-05-06T07:53:50.304Z,189.26
2023-05-06T07:54:50.294Z,189.02
2023-05-06T07:55:50.303Z,190.22
2023-05-06T07:56:50.373Z,194.41
2023-05-06T07:57:50.463Z,193.81
2023-05-06T07:58:50.496Z,196.17
2023-05-06T07:59:50.539Z,194.35
2023-05-06T08:00:51.093Z,195.38
2023-05-06T08:01:50.464Z,197.33
2023-05-06T08:02:50.550Z,197.71
2023-05-06T08:03:50.657Z,197.51
2023-05-06T08:04:51.758Z,195.15
2023-05-06T08:05:50.579Z,196.42
2023-05-06T08:06:50.617Z,196.08
2023-05-06T08:07:50.634Z,196.87
2023-05-06T08:08:51.113Z,199.78
2023-05-06T08:09:50.741Z,201.75
2023-05-06T08:10:50.749Z,202.66
2023-05-06T08:11:50.793Z,203.75
2023-05-06T08:12:50.847Z,203.07
2023-05-06T08:13:50.891Z,202.82
2023-05-06T08:14:50.894Z,204.73
2023-05-06T08:15:50.917Z,205.94
2023-05-06T08:16:51.122Z,206.36
2023-05-06T08:17:50.993Z,204.96
2023-05-06T08:18:50.964Z,203.72
2023-05-06T08:19:51.000Z,205.88
2023-05-06T08:20:51.097Z,205.01
2023-05-06T08:21:51.075Z,203.60
2023-05-06T08:22:51.094Z,203.67
2023-05-06T08:23:51.150Z,202.66
2023-05-06T08:24:51.217Z,203.63
2023-05-06T08:25:51.228Z,203.94
2023-05-06T08:26:51.222Z,201.33
2023-05-06T08:27:51.275Z,200.36
2023-05-06T08:28:51.282Z,200.99
2023-05-06T08:29:51.321Z,201.31
2023-05-06T08:30:51.394Z,202.29
2023-05-06T08:31:51.400Z,200.20
2023-05-06T08:32:51.494Z,201.99
2023-05-06T08:33:53.868Z,200.59
2023-05-06T08:34:51.447Z,199.90
2023-05-06T08:35:51.465Z,197.41
2023-05-06T08:36:51.395Z,194.78
2023-05-06T08:37:51.417Z,194.41
2023-05-06T08:38:51.410Z,194.79
2023-05-06T08:39:51.382Z,193.71
2023-05-06T08:40:51.367Z,190.64
2023-05-06T08:41:51.392Z,187.67
2023-05-06T08:42:51.414Z,186.33
2023-05-06T08:43:51.345Z,183.86
2023-05-06T08:44:51.345Z,185.19
2023-05-06T08:45:51.404Z,182.96
2023-05-06T08:46:51.388Z,180.39
2023-05-06T08:47:51.364Z,177.22
2023-05-06T08:48:51.325Z,178.20
2023-05-06T08:49:51.342Z,176.02
2023-05-06T08:50:51.300Z,172.97
2023-05-06T08:51:51.314Z,170.86
2023-05-06T08:52:51.292Z,168.48
2023-05-06T08:53:51.310Z,167.58
2023-05-06T08:54:51.277Z,166.13
2023-05-06T08:55:51.267Z,165.16
2023-05-06T08:56:51.640Z,165.12
2023-05-06T08:57:51.298Z,165.77
2023-05-06T08:58:51.243Z,163.60
2023-05-06T08:59:51.257Z,161.02
2023-05-06T09:00:51.292Z,158.68
2023-05-06T09:01:51.233Z,157.34
2023-05-06T09:02:51.278Z,156.44
2023-05-06T09:03:51.681Z,156.23
2023-05-06T09:04:51.233Z,155.34
2023-05-06T09:05:51.179Z,155.27
2023-05-06T09:06:51.194Z,154.81
2023-05-06T09:07:51.219Z,156.68
2023-05-06T09:08:51.157Z,159.85
2023-05-06T09:09:51.165Z,160.17
2023-05-06T09:10:51.179Z,159.12
2023-05-06T09:11:51.184Z,160.37
2023-05-06T09:12:51.251Z,161.00
2023-05-06T09:13:51.241Z,161.30
2023-05-06T09:14:51.220Z,160.02
2023-05-06T09:15:51.108Z,159.74
2023-05-06T09:16:51.173Z,161.75
2023-05-06T09:17:51.295Z,165.61
2023-05-06T09:18:51.112Z,168.78
2023-05-06T09:19:51.123Z,169.51
2023-05-06T09:20:51.097Z,174.08
2023-05-06T09:21:51.083Z,174.71
2023-05-06T09:22:51.042Z,179.77
2023-05-06T09:23:51.075Z,178.77
2023-05-06T09:24:51.056Z,178.33
2023-05-06T09:25:51.632Z,176.09
2023-05-06T09:26:51.013Z,175.53
2023-05-06T09:27:51.039Z,175.62
2023-05-06T09:28:51.037Z,176.05
2023-05-06T09:29:51.006Z,181.41
2023-05-06T09:30:51.017Z,178.84
2023-05-06T09:31:51.004Z,179.04
2023-05-06T09:32:51.075Z,179.47
2023-05-06T09:33:50.970Z,175.18
2023-05-06T09:34:51.045Z,171.05
2023-05-06T09:35:50.993Z,168.29
2023-05-06T09:36:50.951Z,166.23
2023-05-06T09:37:50.969Z,166.18
2023-05-06T09:38:50.945Z,173.63
2023-05-06T09:39:50.917Z,174.28
2023-05-06T09:40:50.933Z,167.47
2023-05-06T09:41:50.931Z,165.81
2023-05-06T09:42:50.940Z,163.84
2023-05-06T09:43:50.936Z,168.32
2023-05-06T09:44:50.926Z,174.38
2023-05-06T09:45:50.945Z,174.24
2023-05-06T09:46:50.958Z,171.19
2023-05-06T09:47:50.894Z,166.18
2023-05-06T09:48:50.872Z,168.43
2023-05-06T09:49:50.874Z,165.99
2023-05-06T09:50:51.043Z,162.51
2023-05-06T09:51:50.841Z,159.69
2023-05-06T09:52:50.864Z,158.12
2023-05-06T09:53:51.212Z,158.01
2023-05-06T09:54:50.856Z,164.62
2023-05-06T09:55:50.830Z,168.03
2023-05-06T09:56:50.823Z,163.74
2023-05-06T09:57:50.817Z,159.00
2023-05-06T09:58:50.843Z,161.71
2023-05-06T09:59:50.765Z,165.10
2023-05-06T10:00:50.808Z,164.93
2023-05-06T10:01:50.850Z,164.54
2023-05-06T10:02:51.064Z,169.48
2023-05-06T10:03:50.950Z,167.53
2023-05-06T10:04:51.337Z,171.58
2023-05-06T10:05:50.888Z,172.61
2023-05-06T10:06:50.896Z,174.00
2023-05-06T10:07:50.896Z,172.90
2023-05-06T10:08:50.945Z,175.20
2023-05-06T10:09:51.003Z,176.61
2023-05-06T10:10:50.976Z,175.90
2023-05-06T10:11:50.962Z,176.13
2023-05-06T10:12:50.986Z,178.63
2023-05-06T10:13:50.953Z,182.61
2023-05-06T10:14:50.992Z,184.09
2023-05-06T10:15:51.022Z,185.33
2023-05-06T10:16:51.065Z,185.55
2023-05-06T10:17:51.143Z,186.49
2023-05-06T10:18:51.084Z,188.51
2023-05-06T10:19:51.083Z,191.58
2023-05-06T10:20:51.148Z,191.72
2023-05-06T10:21:51.091Z,190.85
2023-05-06T10:22:51.292Z,191.40
2023-05-06T10:23:51.103Z,192.96
2023-05-06T10:24:51.173Z,193.88
2023-05-06T10:25:51.232Z,195.84
2023-05-06T10:26:51.227Z,197.52
2023-05-06T10:27:51.242Z,197.72
2023-05-06T10:28:51.250Z,198.69
2023-05-06T10:29:51.249Z,201.87
2023-05-06T10:30:51.254Z,202.29
2023-05-06T10:31:51.296Z,202.02
2023-05-06T10:32:51.338Z,203.94
2023-05-06T10:33:51.315Z,205.62
2023-05-06T10:34:51.313Z,206.38
2023-05-06T10:35:51.306Z,208.04
2023-05-06T10:36:51.390Z,207.70
2023-05-06T10:37:51.365Z,206.57
2023-05-06T10:38:51.507Z,204.74
2023-05-06T10:39:51.408Z,205.82
2023-05-06T10:40:51.441Z,204.45
2023-05-06T10:41:52.207Z,202.71
2023-05-06T10:42:51.509Z,192.85
2023-05-06T10:43:51.478Z,193.04
2023-05-06T10:44:51.486Z,185.75
2023-05-06T10:45:51.535Z,180.99
2023-05-06T10:46:51.549Z,178.62
2023-05-06T10:47:51.665Z,179.33
2023-05-06T10:48:51.571Z,176.59
2023-05-06T10:49:51.581Z,173.65
2023-05-06T10:50:51.651Z,170.09
2023-05-06T10:51:51.653Z,167.33
2023-05-06T10:52:51.666Z,169.13
2023-05-06T10:53:51.693Z,169.84
2023-05-06T10:54:51.862Z,171.26
2023-05-06T10:55:51.700Z,172.06
2023-05-06T10:56:51.730Z,165.72
2023-05-06T10:57:51.733Z,164.20
2023-05-06T10:58:51.733Z,168.73
2023-05-06T10:59:51.826Z,163.08
2023-05-06T11:00:51.885Z,163.81
2023-05-06T11:01:51.793Z,169.29
2023-05-06T11:02:51.880Z,163.69
2023-05-06T11:03:51.864Z,166.98
2023-05-06T11:04:51.884Z,166.43
2023-05-06T11:05:51.856Z,161.51
2023-05-06T11:06:51.889Z,161.86
2023-05-06T11:07:51.879Z,159.52
2023-05-06T11:08:51.926Z,158.75
2023-05-06T11:09:51.957Z,152.51
2023-05-06T11:10:51.967Z,147.30
2023-05-06T11:11:51.988Z,144.86
2023-05-06T11:12:52.018Z,143.51
2023-05-06T11:13:52.018Z,144.00
2023-05-06T11:14:52.067Z,146.17
2023-05-06T11:15:52.156Z,150.17
2023-05-06T11:16:52.122Z,146.45
2023-05-06T11:17:52.156Z,150.64
2023-05-06T11:18:52.183Z,149.56
2023-05-06T11:19:52.176Z,150.91
2023-05-06T11:20:52.207Z,147.57
2023-05-06T11:21:52.181Z,145.43
2023-05-06T11:22:52.203Z,144.27
2023-05-06T11:23:52.263Z,143.12
2023-05-06T11:24:52.256Z,146.42
2023-05-06T11:25:52.251Z,150.17
2023-05-06T11:26:52.326Z,153.69
2023-05-06T11:27:52.329Z,159.82
2023-05-06T11:28:52.698Z,161.63
2023-05-06T11:29:52.415Z,161.93
2023-05-06T11:30:52.379Z,165.84
2023-05-06T11:31:52.383Z,163.56
2023-05-06T11:32:52.429Z,169.71
2023-05-06T11:33:52.483Z,171.96
2023-05-06T11:34:52.431Z,173.87
2023-05-06T11:35:52.492Z,173.78
2023-05-06T11:36:52.509Z,174.68
2023-05-06T11:37:52.583Z,177.42
2023-05-06T11:38:52.688Z,174.92
2023-05-06T11:39:52.568Z,176.75
2023-05-06T11:40:52.646Z,180.89
2023-05-06T11:41:52.653Z,179.75
2023-05-06T11:42:52.820Z,179.81
2023-05-06T11:43:52.758Z,177.01
2023-05-06T11:44:52.664Z,168.76
2023-05-06T11:45:52.819Z,163.23
2023-05-06T11:46:52.815Z,169.62
2023-05-06T11:47:52.906Z,174.96
2023-05-06T11:48:52.800Z,174.13
2023-05-06T11:49:52.924Z,174.53
2023-05-06T11:50:52.812Z,174.13
2023-05-06T11:51:52.930Z,180.96
2023-05-06T11:52:52.861Z,182.96
2023-05-06T11:53:52.869Z,183.79
2023-05-06T11:54:52.913Z,179.03
2023-05-06T11:55:52.944Z,173.80
2023-05-06T11:56:52.888Z,170.30
2023-05-06T11:57:52.957Z,170.51
2023-05-06T11:58:52.999Z,170.79
2023-05-06T11:59:53.008Z,172.63
2023-05-06T12:00:53.015Z,170.56
2023-05-06T12:01:53.026Z,168.83
2023-05-06T12:02:53.169Z,171.74
2023-05-06T12:03:53.189Z,174.26
2023-05-06T12:04:53.231Z,171.93
2023-05-06T12:05:53.129Z,170.08
2023-05-06T12:06:53.161Z,171.06
2023-05-06T12:07:55.700Z,171.09
2023-05-06T12:08:53.278Z,171.31
2023-05-06T12:09:53.324Z,172.42
2023-05-06T12:10:53.363Z,173.40
2023-05-06T12:11:53.432Z,177.75
2023-05-06T12:12:53.434Z,179.97
2023-05-06T12:13:53.421Z,182.76
2023-05-06T12:14:53.505Z,184.79
2023-05-06T12:15:53.522Z,187.27
2023-05-06T12:16:55.950Z,192.25
2023-05-06T12:17:53.798Z,193.83
2023-05-06T12:18:53.716Z,196.54
2023-05-06T12:19:53.727Z,199.64
2023-05-06T12:20:53.724Z,200.68
2023-05-06T12:21:53.836Z,202.14
2023-05-06T12:22:55.447Z,203.49
2023-05-06T12:23:53.927Z,204.00
2023-05-06T12:24:53.884Z,204.72
2023-05-06T12:25:53.893Z,204.32
2023-05-06T12:26:53.921Z,205.75
2023-05-06T12:27:54.924Z,207.26
2023-05-06T12:28:53.936Z,206.54